Time;durP1;ratioP1;P1;durP2;ratioP2;P2;SDS_P1;SDS_P2;PMS_P1;PMS_P2;Temp;Humidity;BMP_temperature;BMP_pressure;BME280_temperature;BME280_humidity;BME280_pressure;Samples;Min_cycle;Max_cycle;Signal;HPM_P1;HPM_P2
2023/01/22 00:00:24;;;;;;;0.83;0.83;;;-0.40;99.90;;;;;;5088457;28;20692;-69
2023/01/22 00:02:50;;;;;;;0.88;0.88;;;-0.40;99.90;;;;;;5088761;28;21203;-70
2023/01/22 00:05:17;;;;;;;0.88;0.57;;;-0.40;99.90;;;;;;5082471;28;20419;-69
2023/01/22 00:07:44;;;;;;;2.35;1.65;;;-0.40;99.90;;;;;;5080902;28;20431;-69
2023/01/22 00:10:14;;;;;;;0.60;0.55;;;-0.30;99.90;;;;;;5082975;28;20431;-69
2023/01/22 00:12:50;;;;;;;0.90;0.90;;;-0.40;99.90;;;;;;5084209;28;20426;-69
2023/01/22 00:15:17;;;;;;;1.85;1.00;;;-0.30;99.90;;;;;;5074937;28;20431;-69
2023/01/22 00:17:44;;;;;;;0.35;0.35;;;-0.30;99.90;;;;;;5098030;28;20424;-69
2023/01/22 00:20:12;;;;;;;0.80;0.80;;;-0.30;99.90;;;;;;5086916;28;20541;-69
2023/01/22 00:22:41;;;;;;;0.50;0.50;;;-0.30;99.90;;;;;;5080068;28;20896;-69
2023/01/22 00:25:17;;;;;;;0.90;0.75;;;-0.30;99.90;;;;;;5089024;28;20416;-69
2023/01/22 00:27:44;;;;;;;0.15;0.15;;;-0.30;99.90;;;;;;5090085;28;20499;-69
2023/01/22 00:30:11;;;;;;;0.40;0.40;;;-0.20;99.90;;;;;;5088876;28;20788;-69
2023/01/22 00:32:37;;;;;;;0.50;0.43;;;-0.30;99.90;;;;;;5092346;28;20418;-69
2023/01/22 00:35:04;;;;;;;0.80;0.80;;;-0.30;99.90;;;;;;5096649;28;20420;-69
2023/01/22 00:37:31;;;;;;;0.40;0.40;;;-0.30;99.90;;;;;;5089860;28;20993;-69
2023/01/22 00:39:58;;;;;;;0.30;0.30;;;-0.20;99.90;;;;;;5098172;28;20506;-68
2023/01/22 00:42:25;;;;;;;0.30;0.30;;;-0.20;99.90;;;;;;5077937;28;20433;-69
2023/01/22 00:44:52;;;;;;;0.90;0.43;;;-0.20;99.90;;;;;;5088599;28;20424;-68
2023/01/22 00:47:19;;;;;;;1.40;0.55;;;-0.10;99.90;;;;;;5087492;28;20544;-69
2023/01/22 00:49:52;;;;;;;0.40;0.40;;;-0.10;99.90;;;;;;5092365;28;20937;-69
2023/01/22 00:52:18;;;;;;;0.63;0.63;;;0.00;99.90;;;;;;5074090;28;20435;-69
2023/01/22 00:54:45;;;;;;;0.22;0.22;;;0.00;99.90;;;;;;5101412;28;20767;-69
2023/01/22 00:57:14;;;;;;;0.88;0.88;;;0.10;99.90;;;;;;5090061;28;21032;-69
2023/01/22 00:59:41;;;;;;;0.43;0.43;;;0.10;99.90;;;;;;5082077;28;20526;-69
2023/01/22 01:02:08;;;;;;;0.55;0.45;;;0.10;99.90;;;;;;5092262;28;20994;-68
2023/01/22 01:04:36;;;;;;;0.20;0.20;;;0.10;99.90;;;;;;5072122;28;20530;-68
2023/01/22 01:07:04;;;;;;;0.20;0.20;;;0.20;99.90;;;;;;5084990;28;20888;-68
2023/01/22 01:09:31;;;;;;;0.40;0.40;;;0.20;99.90;;;;;;5084368;28;20514;-68
2023/01/22 01:11:59;;;;;;;0.40;0.40;;;0.20;99.90;;;;;;5097635;28;20427;-68
2023/01/22 01:14:27;;;;;;;0.30;0.30;;;0.20;99.90;;;;;;5085770;28;20471;-68
2023/01/22 01:16:57;;;;;;;0.70;0.30;;;0.20;99.90;;;;;;5082444;27;20494;-68
2023/01/22 01:19:24;;;;;;;0.50;0.50;;;0.20;99.90;;;;;;5080751;28;20909;-68
2023/01/22 01:21:51;;;;;;;0.50;0.50;;;0.20;99.90;;;;;;5083874;28;20493;-68
2023/01/22 01:24:18;;;;;;;0.30;0.30;;;0.20;99.90;;;;;;5081658;28;20441;-68
2023/01/22 01:26:44;;;;;;;0.52;0.52;;;0.20;99.90;;;;;;5077138;28;20440;-67
2023/01/22 01:29:11;;;;;;;0.40;0.22;;;0.20;99.90;;;;;;5082130;28;20465;-67
2023/01/22 01:31:38;;;;;;;0.30;0.30;;;0.20;99.90;;;;;;5087610;28;20426;-67
2023/01/22 01:34:08;;;;;;;0.73;0.47;;;0.30;99.90;;;;;;5086247;28;20515;-67
2023/01/22 01:36:35;;;;;;;1.10;0.52;;;0.20;99.90;;;;;;5086517;28;20522;-67
2023/01/22 01:39:15;;;;;;;0.90;0.90;;;0.20;99.90;;;;;;5089497;28;20758;-67
2023/01/22 01:41:42;;;;;;;0.20;0.20;;;0.20;99.90;;;;;;5093078;28;21062;-67
2023/01/22 01:44:20;;;;;;;0.97;0.70;;;0.20;99.90;;;;;;5078724;28;21105;-67
2023/01/22 01:46:52;;;;;;;1.40;0.35;;;0.20;99.90;;;;;;5088057;28;20798;-67
2023/01/22 01:49:27;;;;;;;1.73;1.25;;;0.20;99.90;;;;;;5080126;28;20510;-67
2023/01/22 01:51:58;;;;;;;0.70;0.70;;;0.30;99.90;;;;;;5086165;28;20428;-67
2023/01/22 01:54:26;;;;;;;0.30;0.30;;;0.20;99.90;;;;;;5073635;28;20427;-67
2023/01/22 01:57:00;;;;;;;3.10;0.52;;;0.20;99.90;;;;;;5090840;28;20431;-67
2023/01/22 01:59:27;;;;;;;0.30;0.30;;;0.20;99.90;;;;;;5080624;28;20948;-66
2023/01/22 02:01:54;;;;;;;0.30;0.30;;;0.20;99.90;;;;;;5085934;28;20439;-67
2023/01/22 02:04:22;;;;;;;0.20;0.20;;;0.20;99.90;;;;;;5089602;28;20799;-67
2023/01/22 02:06:49;;;;;;;0.43;0.43;;;0.10;99.90;;;;;;5078461;28;20540;-67
2023/01/22 02:09:16;;;;;;;0.45;0.30;;;0.20;99.90;;;;;;5085287;28;20956;-66
2023/01/22 02:11:43;;;;;;;0.60;0.40;;;0.20;99.90;;;;;;5091660;28;20432;-66
2023/01/22 02:14:14;;;;;;;0.40;0.40;;;0.20;99.90;;;;;;5083680;28;21155;-67
2023/01/22 02:16:41;;;;;;;0.30;0.30;;;0.20;99.90;;;;;;5088103;28;20538;-67
2023/01/22 02:19:13;;;;;;;0.50;0.50;;;0.20;99.90;;;;;;5078343;28;20431;-67
2023/01/22 02:21:43;;;;;;;0.50;0.50;;;0.20;99.90;;;;;;5079977;28;20417;-66
2023/01/22 02:24:15;;;;;;;0.20;0.20;;;0.30;99.90;;;;;;5086655;28;20869;-67
2023/01/22 02:26:44;;;;;;;0.20;0.20;;;0.20;99.90;;;;;;5086986;28;20431;-66
2023/01/22 02:29:12;;;;;;;0.50;0.50;;;0.20;99.90;;;;;;5086247;28;20438;-66
2023/01/22 02:31:42;;;;;;;0.20;0.20;;;0.20;99.90;;;;;;5081698;28;20430;-67
2023/01/22 02:34:12;;;;;;;6.80;0.60;;;0.30;99.90;;;;;;5083152;28;20481;-67
2023/01/22 02:36:42;;;;;;;0.20;0.20;;;0.30;99.90;;;;;;5087289;28;20428;-67
2023/01/22 02:39:08;;;;;;;0.50;0.50;;;0.30;99.90;;;;;;5088603;28;20554;-66
2023/01/22 02:41:35;;;;;;;0.20;0.20;;;0.20;99.90;;;;;;5086422;28;20435;-66
2023/01/22 02:44:02;;;;;;;0.23;0.23;;;0.30;99.90;;;;;;5085753;28;20469;-66
2023/01/22 02:46:29;;;;;;;0.30;0.30;;;0.30;99.90;;;;;;5076753;28;20432;-67
2023/01/22 02:48:56;;;;;;;0.50;0.20;;;0.30;99.90;;;;;;5081006;28;20836;-67
2023/01/22 02:51:23;;;;;;;0.43;0.33;;;0.30;99.90;;;;;;5074561;28;20633;-66
2023/01/22 02:53:55;;;;;;;0.32;0.32;;;0.20;99.90;;;;;;5078400;28;20424;-66
2023/01/22 02:56:22;;;;;;;6.50;0.50;;;0.30;99.90;;;;;;5086349;28;20483;-66
2023/01/22 02:58:52;;;;;;;0.35;0.35;;;0.30;99.90;;;;;;5093413;28;21131;-66
2023/01/22 03:01:22;;;;;;;0.20;0.20;;;0.40;99.90;;;;;;5089741;28;20451;-66
2023/01/22 03:03:54;;;;;;;0.35;0.35;;;0.30;99.90;;;;;;5090243;28;20429;-67
2023/01/22 03:06:24;;;;;;;0.80;0.60;;;0.40;99.90;;;;;;5081372;28;20427;-67
2023/01/22 03:08:56;;;;;;;0.30;0.30;;;0.30;99.90;;;;;;5079297;28;20431;-66
2023/01/22 03:11:26;;;;;;;0.53;0.43;;;0.40;99.90;;;;;;5085576;28;20496;-68
2023/01/22 03:22:11;;;;;;;0.10;0.10;;;0.30;99.90;;;;;;5082461;28;20844;-67
2023/01/22 03:24:38;;;;;;;0.40;0.40;;;0.40;99.90;;;;;;5082804;28;20441;-67
2023/01/22 03:27:08;;;;;;;0.40;0.40;;;0.40;99.90;;;;;;5084647;28;20434;-67
2023/01/22 03:29:37;;;;;;;0.20;0.20;;;0.40;99.90;;;;;;5078557;28;20438;-66
2023/01/22 03:32:04;;;;;;;0.20;0.20;;;0.40;99.90;;;;;;5076586;28;20422;-67
2023/01/22 03:34:31;;;;;;;0.40;0.40;;;0.30;99.90;;;;;;5085808;28;20457;-67
2023/01/22 03:36:58;;;;;;;0.45;0.45;;;0.30;99.90;;;;;;5085703;28;20432;-67
2023/01/22 03:39:26;;;;;;;0.95;0.65;;;0.30;99.90;;;;;;5075484;28;20431;-67
2023/01/22 03:41:53;;;;;;;0.40;0.40;;;0.30;99.90;;;;;;5090334;28;20489;-67
2023/01/22 03:44:19;;;;;;;0.25;0.25;;;0.40;99.90;;;;;;5084947;28;20823;-67
2023/01/22 03:46:46;;;;;;;0.60;0.60;;;0.40;99.90;;;;;;5078558;28;20451;-68
2023/01/22 03:49:16;;;;;;;0.30;0.30;;;0.40;99.90;;;;;;5092901;28;20432;-67
2023/01/22 03:51:43;;;;;;;0.43;0.43;;;0.40;99.90;;;;;;5087670;28;21198;-67
2023/01/22 03:54:11;;;;;;;0.20;0.20;;;0.40;99.90;;;;;;5091145;28;20436;-67
2023/01/22 03:56:38;;;;;;;0.30;0.30;;;0.40;99.90;;;;;;5084036;28;20426;-67
2023/01/22 03:59:09;;;;;;;0.90;0.50;;;0.40;99.90;;;;;;5075360;28;20427;-67
2023/01/22 04:01:36;;;;;;;0.20;0.20;;;0.40;99.90;;;;;;5087412;28;20459;-67
2023/01/22 04:04:06;;;;;;;0.30;0.30;;;0.40;99.90;;;;;;5070590;28;20423;-67
2023/01/22 04:06:35;;;;;;;0.55;0.55;;;0.40;99.90;;;;;;5081524;28;20428;-67
2023/01/22 04:09:05;;;;;;;0.40;0.40;;;0.40;99.90;;;;;;5081828;28;20427;-67
2023/01/22 04:11:34;;;;;;;0.30;0.30;;;0.40;99.90;;;;;;5085565;28;20424;-67
2023/01/22 04:14:03;;;;;;;0.98;0.63;;;0.40;99.90;;;;;;5094743;28;20507;-67
2023/01/22 04:16:30;;;;;;;0.40;0.40;;;0.50;99.90;;;;;;5080718;28;20914;-67
2023/01/22 04:18:58;;;;;;;0.30;0.30;;;0.50;99.90;;;;;;5076670;28;20433;-68
2023/01/22 04:21:25;;;;;;;0.90;0.90;;;0.50;99.90;;;;;;5083700;28;20438;-67
2023/01/22 04:23:55;;;;;;;0.28;0.28;;;0.50;99.90;;;;;;5082366;28;21779;-67
2023/01/22 04:26:22;;;;;;;0.50;0.50;;;0.50;99.90;;;;;;5081509;28;21102;-67
2023/01/22 04:28:49;;;;;;;0.30;0.30;;;0.60;99.90;;;;;;5080879;28;20433;-67
2023/01/22 04:31:16;;;;;;;0.52;0.52;;;0.60;99.90;;;;;;5075576;28;20912;-67
2023/01/22 04:33:42;;;;;;;0.25;0.25;;;0.50;99.90;;;;;;5083734;28;20481;-67
2023/01/22 04:36:09;;;;;;;0.40;0.40;;;0.60;99.90;;;;;;5081103;28;20505;-67
2023/01/22 04:38:39;;;;;;;0.20;0.20;;;0.60;99.90;;;;;;5083765;28;20513;-67
2023/01/22 04:41:06;;;;;;;0.52;0.52;;;0.60;99.90;;;;;;5072216;28;20427;-67
2023/01/22 04:43:32;;;;;;;0.20;0.20;;;0.60;99.90;;;;;;5074325;28;20507;-67
2023/01/22 04:45:59;;;;;;;0.30;0.30;;;0.60;99.90;;;;;;5077387;28;20857;-67
2023/01/22 04:48:26;;;;;;;0.20;0.20;;;0.60;99.90;;;;;;5075350;28;20430;-67
2023/01/22 04:50:53;;;;;;;0.30;0.30;;;0.60;99.90;;;;;;5077584;28;20489;-67
2023/01/22 04:53:20;;;;;;;0.30;0.30;;;0.70;99.90;;;;;;5072921;28;20557;-67
2023/01/22 04:55:46;;;;;;;0.20;0.20;;;0.70;99.90;;;;;;5082486;28;20433;-67
2023/01/22 04:58:13;;;;;;;0.20;0.20;;;0.70;99.90;;;;;;5089426;28;20434;-67
2023/01/22 05:00:40;;;;;;;1.30;0.47;;;0.70;99.90;;;;;;5078165;28;20418;-67
2023/01/22 05:03:07;;;;;;;0.22;0.22;;;0.70;99.90;;;;;;5074196;28;20439;-67
2023/01/22 05:05:33;;;;;;;0.40;0.40;;;0.70;99.90;;;;;;5089130;28;20428;-67
2023/01/22 05:08:00;;;;;;;0.30;0.30;;;0.70;99.90;;;;;;5084001;28;20485;-67
2023/01/22 05:10:27;;;;;;;0.40;0.30;;;0.70;99.90;;;;;;5073886;28;20419;-67
2023/01/22 05:12:56;;;;;;;0.17;0.17;;;0.70;99.90;;;;;;5079796;28;20460;-67
2023/01/22 05:15:23;;;;;;;0.22;0.22;;;0.70;99.90;;;;;;5076472;28;20939;-67
2023/01/22 05:17:52;;;;;;;0.22;0.22;;;0.70;99.90;;;;;;5081401;28;20426;-68
2023/01/22 05:20:19;;;;;;;0.20;0.20;;;0.70;99.90;;;;;;5073592;28;20432;-68
2023/01/22 05:22:46;;;;;;;0.32;0.32;;;0.70;99.90;;;;;;5070917;28;20508;-68
2023/01/22 05:25:13;;;;;;;0.20;0.20;;;0.70;99.90;;;;;;5078162;28;20995;-68
2023/01/22 05:27:43;;;;;;;0.15;0.15;;;0.70;99.90;;;;;;5073220;28;20439;-68
2023/01/22 05:30:11;;;;;;;1.20;0.40;;;0.70;99.90;;;;;;5078220;28;20506;-68
2023/01/22 05:32:38;;;;;;;0.32;0.32;;;0.80;99.90;;;;;;5079540;28;20428;-67
2023/01/22 05:35:05;;;;;;;1.77;0.57;;;0.80;99.90;;;;;;5080202;28;20438;-68
2023/01/22 05:37:35;;;;;;;0.20;0.20;;;0.80;99.90;;;;;;5089902;28;20462;-68
2023/01/22 05:40:04;;;;;;;0.60;0.60;;;0.80;99.90;;;;;;5091739;28;20494;-67
2023/01/22 05:42:31;;;;;;;0.30;0.30;;;0.80;99.90;;;;;;5089668;28;20443;-68
2023/01/22 05:44:57;;;;;;;0.50;0.50;;;0.80;99.90;;;;;;5090469;28;21099;-68
2023/01/22 05:47:24;;;;;;;0.28;0.28;;;0.80;99.90;;;;;;5098327;28;20434;-68
2023/01/22 05:49:51;;;;;;;0.20;0.20;;;0.80;99.90;;;;;;5081735;28;20500;-66
2023/01/22 05:52:17;;;;;;;0.30;0.30;;;0.80;99.90;;;;;;5078165;28;20432;-67
2023/01/22 05:54:44;;;;;;;0.20;0.20;;;0.80;99.90;;;;;;5084802;28;20423;-67
2023/01/22 05:57:11;;;;;;;0.30;0.30;;;0.80;99.90;;;;;;5089124;28;20908;-67
2023/01/22 05:59:38;;;;;;;0.60;0.40;;;0.80;99.90;;;;;;5073126;28;20438;-67
2023/01/22 06:02:04;;;;;;;0.40;0.40;;;0.80;99.90;;;;;;5083480;28;20422;-67
2023/01/22 06:04:31;;;;;;;0.10;0.10;;;0.80;99.90;;;;;;5082485;28;20428;-67
2023/01/22 06:06:58;;;;;;;0.10;0.10;;;0.80;99.90;;;;;;5080740;28;20956;-67
2023/01/22 06:09:24;;;;;;;0.40;0.40;;;0.80;99.90;;;;;;5078377;28;20435;-67
2023/01/22 06:11:51;;;;;;;0.30;0.30;;;0.80;99.90;;;;;;5088078;28;20436;-67
2023/01/22 06:14:18;;;;;;;2.30;0.35;;;0.80;99.90;;;;;;5083590;28;20429;-68
2023/01/22 06:16:45;;;;;;;0.35;0.35;;;0.80;99.90;;;;;;5091874;28;20435;-67
2023/01/22 06:19:12;;;;;;;0.28;0.28;;;0.80;99.90;;;;;;5071100;28;20444;-68
2023/01/22 06:21:38;;;;;;;1.80;0.50;;;0.80;99.90;;;;;;5085462;28;20421;-67
2023/01/22 06:24:06;;;;;;;0.40;0.40;;;0.80;99.90;;;;;;5078340;28;20477;-67
2023/01/22 06:26:38;;;;;;;0.37;0.37;;;0.80;99.90;;;;;;5081666;28;20436;-67
2023/01/22 06:29:05;;;;;;;0.43;0.43;;;0.80;99.90;;;;;;5079479;28;20516;-69
2023/01/22 06:31:32;;;;;;;0.20;0.20;;;0.90;99.90;;;;;;5092526;28;20435;-67
2023/01/22 06:33:59;;;;;;;0.22;0.20;;;0.90;99.90;;;;;;5076854;28;20434;-67
2023/01/22 06:36:26;;;;;;;0.40;0.40;;;0.90;99.90;;;;;;5079030;28;20429;-67
2023/01/22 06:38:52;;;;;;;0.40;0.40;;;0.90;99.90;;;;;;5078921;28;20429;-67
2023/01/22 06:41:19;;;;;;;0.50;0.40;;;1.00;99.90;;;;;;5078604;28;20795;-67
2023/01/22 06:43:46;;;;;;;0.40;0.40;;;0.90;99.90;;;;;;5071658;28;20488;-67
2023/01/22 06:46:13;;;;;;;0.35;0.35;;;0.90;99.90;;;;;;5081746;28;20421;-67
2023/01/22 06:48:42;;;;;;;0.30;0.30;;;0.90;99.90;;;;;;5079050;28;20457;-67
2023/01/22 06:51:09;;;;;;;0.30;0.30;;;0.90;99.90;;;;;;5076890;28;20436;-67
2023/01/22 06:53:36;;;;;;;0.50;0.50;;;0.90;99.90;;;;;;5075613;28;20422;-67
2023/01/22 06:56:03;;;;;;;0.30;0.30;;;1.00;99.90;;;;;;5077853;28;20419;-67
2023/01/22 06:58:30;;;;;;;0.40;0.40;;;1.00;99.90;;;;;;5081175;28;20440;-67
2023/01/22 07:01:01;;;;;;;0.30;0.30;;;1.00;99.90;;;;;;5078310;28;20443;-66
2023/01/22 07:03:28;;;;;;;0.20;0.20;;;1.00;99.90;;;;;;5083811;28;20426;-66
2023/01/22 07:05:57;;;;;;;0.20;0.20;;;1.00;99.90;;;;;;5074232;28;20429;-66
2023/01/22 07:08:24;;;;;;;0.30;0.30;;;1.00;99.90;;;;;;5087134;28;20475;-66
2023/01/22 07:10:51;;;;;;;0.40;0.40;;;0.90;99.90;;;;;;5076720;28;20439;-65
2023/01/22 07:13:18;;;;;;;0.22;0.22;;;1.00;99.90;;;;;;5081875;28;20426;-66
2023/01/22 07:15:45;;;;;;;0.40;0.40;;;1.00;99.90;;;;;;5079556;28;20419;-66
2023/01/22 07:18:13;;;;;;;0.50;0.20;;;1.00;99.90;;;;;;5073710;28;20427;-66
2023/01/22 07:20:41;;;;;;;0.30;0.30;;;1.00;99.90;;;;;;5080605;28;20440;-66
2023/01/22 07:23:08;;;;;;;0.30;0.30;;;1.00;99.90;;;;;;5074471;28;21060;-66
2023/01/22 07:25:35;;;;;;;0.40;0.40;;;1.00;99.90;;;;;;5071781;28;20946;-66
2023/01/22 07:28:04;;;;;;;0.80;0.80;;;1.00;99.90;;;;;;5081415;28;20781;-66
2023/01/22 07:30:31;;;;;;;0.30;0.30;;;1.00;99.90;;;;;;5075438;28;20436;-66
2023/01/22 07:33:00;;;;;;;1.20;0.60;;;1.00;99.90;;;;;;5066562;28;20604;-65
2023/01/22 07:35:27;;;;;;;0.30;0.30;;;1.10;99.90;;;;;;5078300;28;20425;-66
2023/01/22 07:37:56;;;;;;;0.65;0.65;;;1.10;99.90;;;;;;5078864;28;20508;-66
2023/01/22 07:40:26;;;;;;;0.40;0.40;;;1.10;99.90;;;;;;5076202;28;20930;-66
2023/01/22 07:42:54;;;;;;;0.50;0.50;;;1.10;99.90;;;;;;5082834;28;20462;-67
2023/01/22 07:45:23;;;;;;;0.10;0.10;;;1.10;99.90;;;;;;5072652;28;20514;-66
2023/01/22 07:47:57;;;;;;;0.32;0.17;;;1.10;99.90;;;;;;5075513;28;20429;-66
2023/01/22 07:50:29;;;;;;;0.30;0.30;;;1.10;99.90;;;;;;5075364;28;20961;-66
2023/01/22 07:52:59;;;;;;;0.30;0.30;;;1.10;99.90;;;;;;5079942;28;20428;-66
2023/01/22 07:55:26;;;;;;;0.28;0.28;;;1.10;99.90;;;;;;5064789;28;20419;-66
2023/01/22 07:57:57;;;;;;;0.40;0.40;;;1.10;99.90;;;;;;5074802;28;20437;-66
2023/01/22 08:00:26;;;;;;;2.60;0.40;;;1.20;99.90;;;;;;5078287;28;20519;-66
2023/01/22 08:02:53;;;;;;;0.30;0.30;;;1.20;99.90;;;;;;5073911;28;21307;-66
2023/01/22 08:05:20;;;;;;;0.28;0.28;;;1.20;99.90;;;;;;5079004;28;20946;-66
2023/01/22 08:07:47;;;;;;;0.20;0.20;;;1.20;99.90;;;;;;5083568;28;20752;-66
2023/01/22 08:10:15;;;;;;;0.90;0.40;;;1.20;99.90;;;;;;5071488;28;20435;-66
2023/01/22 08:12:43;;;;;;;0.35;0.35;;;1.30;99.90;;;;;;5079329;28;20430;-66
2023/01/22 08:15:12;;;;;;;0.20;0.20;;;1.30;99.90;;;;;;5084331;28;20430;-66
2023/01/22 08:17:39;;;;;;;0.35;0.35;;;1.40;99.90;;;;;;5088737;28;20501;-66
2023/01/22 08:20:07;;;;;;;0.40;0.20;;;1.50;99.90;;;;;;5087489;28;20434;-66
2023/01/22 08:22:36;;;;;;;0.30;0.30;;;1.60;99.90;;;;;;5070564;28;20556;-66
2023/01/22 08:25:03;;;;;;;0.20;0.20;;;1.60;99.90;;;;;;5078258;28;20429;-66
2023/01/22 08:27:30;;;;;;;0.40;0.40;;;1.70;99.90;;;;;;5078170;28;20429;-66
2023/01/22 08:29:57;;;;;;;0.43;0.43;;;1.70;99.90;;;;;;5079952;28;20954;-66
2023/01/22 08:32:24;;;;;;;0.57;0.57;;;1.80;99.90;;;;;;5091592;28;20414;-66
2023/01/22 08:34:53;;;;;;;0.45;0.45;;;1.80;99.90;;;;;;5077516;28;20509;-66
2023/01/22 08:37:23;;;;;;;0.20;0.20;;;1.80;99.90;;;;;;5081442;28;21195;-66
2023/01/22 08:39:50;;;;;;;0.47;0.40;;;1.90;99.90;;;;;;5083709;28;20431;-66
2023/01/22 08:42:17;;;;;;;0.40;0.30;;;1.90;99.90;;;;;;5074022;28;20435;-67
2023/01/22 08:44:44;;;;;;;0.53;0.53;;;2.00;99.90;;;;;;5084889;28;20436;-71
2023/01/22 08:47:10;;;;;;;0.85;0.85;;;2.10;99.90;;;;;;5067296;28;20430;-66
2023/01/22 08:49:37;;;;;;;0.93;0.93;;;2.20;99.90;;;;;;5076491;28;20427;-66
2023/01/22 08:52:04;;;;;;;0.60;0.50;;;2.30;99.90;;;;;;5082337;28;20512;-67
2023/01/22 08:54:33;;;;;;;0.60;0.40;;;2.40;99.90;;;;;;5080016;28;20927;-66
2023/01/22 08:57:00;;;;;;;0.70;0.60;;;2.50;99.90;;;;;;5068874;28;20919;-66
2023/01/22 08:59:27;;;;;;;0.40;0.40;;;2.60;99.90;;;;;;5093409;28;20429;-66
2023/01/22 09:01:59;;;;;;;0.85;0.65;;;2.70;99.90;;;;;;5090137;27;20508;-66
2023/01/22 09:04:34;;;;;;;0.70;0.70;;;2.90;99.90;;;;;;5063976;28;20531;-66
2023/01/22 09:07:01;;;;;;;0.47;0.47;;;2.90;99.90;;;;;;5083447;28;20450;-66
2023/01/22 09:09:31;;;;;;;0.80;0.80;;;3.00;99.90;;;;;;5078721;28;20430;-66
2023/01/22 09:11:58;;;;;;;0.52;0.52;;;3.20;99.90;;;;;;5071936;28;20924;-66
2023/01/22 09:14:24;;;;;;;0.20;0.20;;;3.40;99.90;;;;;;5064132;28;20432;-66
2023/01/22 09:16:51;;;;;;;0.80;0.80;;;3.50;99.90;;;;;;5066677;28;20423;-67
2023/01/22 09:19:18;;;;;;;0.40;0.40;;;3.50;99.90;;;;;;5071462;28;20443;-66
2023/01/22 09:21:44;;;;;;;0.50;0.50;;;3.50;99.90;;;;;;5074826;28;20428;-67
2023/01/22 09:24:11;;;;;;;0.60;0.60;;;3.40;99.90;;;;;;5068654;28;20434;-67
2023/01/22 09:26:41;;;;;;;0.38;0.38;;;3.50;99.90;;;;;;5072584;28;20455;-66
2023/01/22 09:29:08;;;;;;;1.05;0.50;;;3.50;99.90;;;;;;5076257;28;21188;-67
2023/01/22 09:31:35;;;;;;;1.10;0.43;;;3.60;99.90;;;;;;5076363;28;20427;-66
2023/01/22 09:34:03;;;;;;;0.30;0.30;;;3.60;99.90;;;;;;5066494;28;20486;-66
2023/01/22 09:36:30;;;;;;;0.50;0.50;;;3.70;99.90;;;;;;5069114;28;20429;-66
2023/01/22 09:38:56;;;;;;;0.40;0.40;;;3.80;99.90;;;;;;5070633;28;20463;-66
2023/01/22 09:41:33;;;;;;;0.32;0.32;;;3.90;99.90;;;;;;5068923;28;20433;-66
2023/01/22 09:44:08;;;;;;;0.40;0.40;;;4.00;99.90;;;;;;5081033;28;20880;-66
2023/01/22 09:46:48;;;;;;;0.38;0.38;;;4.00;99.90;;;;;;5089211;28;20453;-66
2023/01/22 09:49:18;;;;;;;0.30;0.30;;;4.10;99.90;;;;;;5068007;28;20823;-66
2023/01/22 09:51:57;;;;;;;0.60;0.57;;;4.30;99.90;;;;;;5084707;28;20427;-67
2023/01/22 09:54:25;;;;;;;0.60;0.60;;;4.40;99.90;;;;;;5065122;28;20447;-66
2023/01/22 09:56:54;;;;;;;0.40;0.40;;;4.60;99.90;;;;;;5074896;28;20474;-66
2023/01/22 09:59:51;;;;;;;0.43;0.43;;;4.30;99.90;;;;;;5079228;28;21137;-66
2023/01/22 10:02:23;;;;;;;0.38;0.38;;;4.00;99.90;;;;;;5063744;28;20435;-66
2023/01/22 10:05:02;;;;;;;0.82;0.82;;;3.80;99.90;;;;;;5069563;28;20430;-67
2023/01/22 10:07:40;;;;;;;0.40;0.40;;;3.90;99.90;;;;;;5074791;28;20432;-67
2023/01/22 10:10:23;;;;;;;0.40;0.40;;;3.80;99.90;;;;;;5076311;28;20473;-66
2023/01/22 10:13:12;;;;;;;0.25;0.25;;;3.80;99.90;;;;;;5074462;28;20917;-67
2023/01/22 10:15:42;;;;;;;0.60;0.50;;;4.00;99.90;;;;;;5076000;28;20482;-67
2023/01/22 10:18:28;;;;;;;0.50;0.50;;;4.20;99.90;;;;;;5080108;28;20463;-67
2023/01/22 10:21:02;;;;;;;1.40;0.60;;;4.10;99.90;;;;;;5069536;28;20519;-66
2023/01/22 10:23:31;;;;;;;1.23;0.70;;;4.20;99.90;;;;;;5066998;28;20920;-66
2023/01/22 10:26:26;;;;;;;0.45;0.45;;;4.20;99.90;;;;;;5079594;28;20420;-66
2023/01/22 10:29:01;;;;;;;3.20;0.82;;;4.10;99.90;;;;;;5071721;28;20489;-66
2023/01/22 10:31:34;;;;;;;0.60;0.50;;;4.10;99.90;;;;;;5088006;28;20421;-66
2023/01/22 10:34:08;;;;;;;1.10;0.60;;;4.20;99.90;;;;;;5077228;28;20943;-66
2023/01/22 10:36:35;;;;;;;0.77;0.77;;;4.30;99.90;;;;;;5073959;28;20426;-66
2023/01/22 10:39:12;;;;;;;0.80;0.77;;;4.20;99.90;;;;;;5070629;28;21120;-66
2023/01/22 10:41:40;;;;;;;0.60;0.60;;;4.30;99.90;;;;;;5078526;28;20441;-66
2023/01/22 10:44:24;;;;;;;0.50;0.50;;;4.30;99.90;;;;;;5073943;28;20489;-66
2023/01/22 10:46:53;;;;;;;0.95;0.55;;;4.50;99.90;;;;;;5083624;28;20485;-65
2023/01/22 10:49:26;;;;;;;0.80;0.80;;;4.60;99.90;;;;;;5095529;28;20823;-66
2023/01/22 10:51:55;;;;;;;0.50;0.50;;;4.70;99.90;;;;;;5069860;28;20418;-66
2023/01/22 10:54:32;;;;;;;0.50;0.50;;;4.90;99.90;;;;;;5078156;28;20902;-66
2023/01/22 10:57:23;;;;;;;0.40;0.40;;;4.70;99.90;;;;;;5076587;28;20423;-66
2023/01/22 11:00:04;;;;;;;0.20;0.20;;;4.70;99.90;;;;;;5077029;28;20421;-66
2023/01/22 11:02:33;;;;;;;0.40;0.40;;;4.60;99.90;;;;;;5080259;28;20514;-66
2023/01/22 11:05:21;;;;;;;0.30;0.30;;;4.40;99.90;;;;;;5071733;28;20930;-66
2023/01/22 11:08:02;;;;;;;0.30;0.30;;;4.50;99.90;;;;;;5075452;28;20426;-66
2023/01/22 11:10:54;;;;;;;0.30;0.30;;;4.40;99.90;;;;;;5083473;28;20434;-67
2023/01/22 11:13:36;;;;;;;0.30;0.30;;;4.50;99.90;;;;;;5083124;28;20817;-66
2023/01/22 11:16:17;;;;;;;0.30;0.30;;;4.50;99.90;;;;;;5077785;28;20427;-66
2023/01/22 11:19:15;;;;;;;0.50;0.47;;;4.80;99.90;;;;;;5084130;28;20463;-66
2023/01/22 11:21:56;;;;;;;0.30;0.30;;;4.90;99.90;;;;;;5082770;28;20457;-67
2023/01/22 11:24:36;;;;;;;0.73;0.73;;;4.70;99.90;;;;;;5074812;28;20422;-67
2023/01/22 11:27:06;;;;;;;0.38;0.38;;;4.60;99.90;;;;;;5077801;28;21153;-67
2023/01/22 11:29:35;;;;;;;0.30;0.30;;;4.90;99.90;;;;;;5079172;28;20539;-67
2023/01/22 11:32:21;;;;;;;0.73;0.38;;;4.90;99.90;;;;;;5076170;28;20430;-68
2023/01/22 11:34:54;;;;;;;0.35;0.35;;;4.80;99.90;;;;;;5079941;28;20481;-68
2023/01/22 11:37:54;;;;;;;0.50;0.50;;;4.70;99.90;;;;;;5075647;28;20433;-68
2023/01/22 11:40:33;;;;;;;0.50;0.50;;;4.70;99.90;;;;;;5084175;28;20425;-68
2023/01/22 11:43:10;;;;;;;0.40;0.40;;;4.70;99.90;;;;;;5083849;28;20439;-68
2023/01/22 11:45:51;;;;;;;0.70;0.52;;;4.70;99.90;;;;;;5079611;28;20675;-68
2023/01/22 11:48:46;;;;;;;0.50;0.50;;;4.50;99.90;;;;;;5084602;28;20787;-68
2023/01/22 11:51:24;;;;;;;1.50;0.50;;;4.50;99.90;;;;;;5085509;28;20431;-68
2023/01/22 11:53:59;;;;;;;0.47;0.47;;;4.50;99.90;;;;;;5061361;28;20465;-68
2023/01/22 11:56:44;;;;;;;0.50;0.50;;;4.40;99.90;;;;;;5080457;28;20457;-68
2023/01/22 11:59:21;;;;;;;0.40;0.40;;;4.30;99.90;;;;;;5080855;28;20461;-68
2023/01/22 12:02:12;;;;;;;0.60;0.40;;;4.20;99.90;;;;;;5074543;28;20511;-71
2023/01/22 12:05:07;;;;;;;0.45;0.45;;;4.20;99.90;;;;;;5080020;28;20433;-68
2023/01/22 12:07:45;;;;;;;2.10;0.55;;;4.40;99.90;;;;;;5074805;28;20432;-68
2023/01/22 12:10:37;;;;;;;0.32;0.32;;;4.20;99.90;;;;;;5073862;28;20430;-68
2023/01/22 12:13:04;;;;;;;0.65;0.65;;;4.20;99.90;;;;;;5076173;28;20437;-69
2023/01/22 12:15:43;;;;;;;0.65;0.65;;;4.20;99.90;;;;;;5066702;28;20423;-68
2023/01/22 12:18:56;;;;;;;0.90;0.90;;;4.10;99.90;;;;;;5069301;28;20446;-69
2023/01/22 12:21:35;;;;;;;0.60;0.60;;;4.20;99.90;;;;;;5076820;28;20462;-69
2023/01/22 12:24:13;;;;;;;0.50;0.50;;;4.10;99.90;;;;;;5065741;28;20429;-69
2023/01/22 12:26:47;;;;;;;0.60;0.60;;;3.90;99.90;;;;;;5064488;28;20923;-69
2023/01/22 12:29:17;;;;;;;0.50;0.50;;;3.90;99.90;;;;;;5067828;28;20430;-70
2023/01/22 12:31:49;;;;;;;0.30;0.30;;;3.90;99.90;;;;;;5074875;28;20435;-68
2023/01/22 12:34:22;;;;;;;0.50;0.50;;;4.00;99.90;;;;;;5073275;28;20435;-70
2023/01/22 12:36:53;;;;;;;0.43;0.43;;;4.00;99.90;;;;;;5076739;28;20440;-69
2023/01/22 12:39:32;;;;;;;0.52;0.52;;;4.10;99.90;;;;;;5081083;28;20920;-69
2023/01/22 12:42:39;;;;;;;0.50;0.50;;;4.10;99.90;;;;;;5078004;28;21262;-69
2023/01/22 12:45:24;;;;;;;0.60;0.43;;;4.00;99.90;;;;;;5042266;28;20437;-70
2023/01/22 12:47:57;;;;;;;0.70;0.63;;;4.10;99.90;;;;;;5033861;28;20427;-70
2023/01/22 12:50:25;;;;;;;0.30;0.30;;;4.00;99.90;;;;;;5018448;28;20430;-69
2023/01/22 12:53:04;;;;;;;0.30;0.30;;;3.90;99.90;;;;;;5034261;28;20770;-69
2023/01/22 12:55:33;;;;;;;0.40;0.40;;;4.00;99.90;;;;;;5031298;28;20427;-70
2023/01/22 12:58:01;;;;;;;0.40;0.40;;;4.00;99.90;;;;;;5037699;28;20930;-69
2023/01/22 13:00:35;;;;;;;0.30;0.30;;;3.90;99.90;;;;;;5041632;28;20433;-70
2023/01/22 13:03:25;;;;;;;0.30;0.30;;;4.00;99.90;;;;;;5035963;28;20526;-69
2023/01/22 13:05:59;;;;;;;0.50;0.50;;;3.90;99.90;;;;;;5039202;28;20437;-70
2023/01/22 13:08:35;;;;;;;0.27;0.27;;;3.80;99.90;;;;;;5032520;28;20433;-70
2023/01/22 13:11:06;;;;;;;0.40;0.40;;;3.70;99.90;;;;;;5028384;28;20797;-70
2023/01/22 13:13:49;;;;;;;0.25;0.25;;;3.60;99.90;;;;;;5043100;28;20425;-70
2023/01/22 13:16:16;;;;;;;0.20;0.20;;;3.60;99.90;;;;;;5031649;28;21114;-69
2023/01/22 13:18:47;;;;;;;0.30;0.30;;;3.60;99.90;;;;;;5037975;28;20430;-69
2023/01/22 13:21:16;;;;;;;0.50;0.50;;;3.70;99.90;;;;;;5081500;28;20437;-70